createdAt,value
2023-01-23T00:02:09.715Z,11.32
2023-01-23T00:04:36.614Z,12.15
2023-01-23T00:07:03.740Z,12.07
2023-01-23T00:09:36.246Z,12.63
2023-01-23T00:12:02.935Z,13.27
2023-01-23T00:14:29.724Z,11.75
2023-01-23T00:16:56.545Z,13.10
2023-01-23T00:19:23.206Z,12.23
2023-01-23T00:21:50.021Z,12.73
2023-01-23T00:24:16.674Z,13.18
2023-01-23T00:26:43.375Z,13.30
2023-01-23T00:29:11.387Z,12.57
2023-01-23T00:31:39.558Z,12.63
2023-01-23T00:34:07.784Z,12.48
2023-01-23T00:36:36.767Z,13.90
2023-01-23T00:39:04.894Z,13.40
2023-01-23T00:41:32.003Z,13.80
2023-01-23T00:43:58.967Z,14.38
2023-01-23T00:46:26.034Z,14.60
2023-01-23T00:48:52.902Z,14.30
2023-01-23T00:51:20.010Z,14.55
2023-01-23T00:53:46.797Z,15.70
2023-01-23T00:56:13.406Z,14.82
2023-01-23T00:58:44.158Z,14.45
2023-01-23T01:01:12.375Z,12.68
2023-01-23T01:03:39.169Z,13.30
2023-01-23T01:06:08.328Z,14.93
2023-01-23T01:08:35.116Z,13.98
2023-01-23T01:11:01.941Z,13.73
2023-01-23T01:13:28.993Z,13.50
2023-01-23T01:15:56.917Z,14.38
2023-01-23T01:18:23.695Z,14.43
2023-01-23T01:20:50.661Z,12.70
2023-01-23T01:23:18.106Z,13.90
2023-01-23T01:25:44.887Z,12.93
2023-01-23T01:28:11.951Z,14.23
2023-01-23T01:30:38.749Z,13.88
2023-01-23T01:33:05.649Z,14.10
2023-01-23T01:35:32.991Z,13.45
2023-01-23T01:38:02.058Z,13.60
2023-01-23T01:40:32.262Z,13.80
2023-01-23T01:43:03.683Z,14.07
2023-01-23T01:45:51.134Z,13.65
2023-01-23T01:48:19.566Z,13.57
2023-01-23T01:50:46.227Z,14.45
2023-01-23T01:53:13.524Z,14.77
2023-01-23T01:55:40.330Z,13.93
2023-01-23T01:58:07.643Z,14.10
2023-01-23T02:00:34.484Z,14.50
2023-01-23T02:03:02.975Z,13.52
2023-01-23T02:05:29.901Z,13.35
2023-01-23T02:07:59.316Z,13.85
2023-01-23T02:10:26.119Z,13.70
2023-01-23T02:12:53.532Z,14.40
2023-01-23T02:15:21.512Z,14.25
2023-01-23T02:17:50.421Z,14.30
2023-01-23T02:20:28.251Z,14.98
2023-01-23T02:22:58.935Z,13.18
2023-01-23T02:25:32.520Z,14.77
2023-01-23T02:27:59.751Z,14.05
2023-01-23T02:30:26.339Z,13.40
2023-01-23T02:32:55.756Z,13.93
2023-01-23T02:35:26.407Z,13.82
2023-01-23T02:37:57.401Z,13.70
2023-01-23T02:40:30.940Z,12.98
2023-01-23T02:42:59.102Z,14.30
2023-01-23T02:45:26.030Z,14.27
2023-01-23T02:47:52.881Z,13.00
2023-01-23T02:50:21.119Z,14.05
2023-01-23T02:52:49.689Z,14.40
2023-01-23T02:55:17.000Z,14.82
2023-01-23T02:57:45.273Z,13.75
2023-01-23T03:00:20.681Z,13.55
2023-01-23T03:02:48.746Z,12.35
2023-01-23T03:05:15.680Z,14.38
2023-01-23T03:07:42.981Z,14.25
2023-01-23T03:10:10.919Z,13.95
2023-01-23T03:12:43.568Z,14.27
2023-01-23T03:15:10.564Z,14.35
2023-01-23T03:17:37.267Z,14.73
2023-01-23T03:20:06.148Z,14.98
2023-01-23T03:22:32.775Z,14.63
2023-01-23T03:25:00.596Z,14.68
2023-01-23T03:27:27.181Z,14.70
2023-01-23T03:30:16.145Z,14.75
2023-01-23T03:32:44.500Z,15.40
2023-01-23T03:35:14.349Z,14.93
2023-01-23T03:37:41.299Z,13.82
2023-01-23T03:40:27.925Z,14.32
2023-01-23T03:42:54.794Z,14.93
2023-01-23T03:45:26.727Z,15.30
2023-01-23T03:47:53.502Z,14.50
2023-01-23T03:50:20.938Z,14.10
2023-01-23T03:52:47.735Z,13.23
2023-01-23T03:55:14.332Z,14.35
2023-01-23T03:57:42.103Z,14.52
2023-01-23T04:00:18.553Z,14.40
2023-01-23T04:02:55.836Z,14.05
2023-01-23T04:05:22.745Z,14.77
2023-01-23T04:07:49.369Z,14.82
2023-01-23T04:10:16.758Z,13.98
2023-01-23T04:12:48.116Z,13.80
2023-01-23T04:15:14.796Z,14.57
2023-01-23T04:17:42.512Z,15.23
2023-01-23T04:20:10.134Z,14.82
2023-01-23T04:22:36.703Z,14.38
2023-01-23T04:25:03.545Z,14.48
2023-01-23T04:27:30.353Z,14.23
2023-01-23T04:29:58.225Z,14.35
2023-01-23T04:32:25.824Z,14.32
2023-01-23T04:34:52.605Z,14.07
2023-01-23T04:37:19.489Z,14.70
2023-01-23T04:39:46.286Z,14.10
2023-01-23T04:42:13.740Z,14.07
2023-01-23T04:44:59.576Z,13.63
2023-01-23T04:47:46.207Z,13.77
2023-01-23T04:50:14.700Z,13.98
2023-01-23T04:52:45.000Z,13.50
2023-01-23T04:55:13.124Z,13.48
2023-01-23T04:57:40.833Z,13.82
2023-01-23T05:00:21.034Z,13.65
2023-01-23T05:02:48.484Z,13.32
2023-01-23T05:05:21.296Z,13.20
2023-01-23T05:07:51.695Z,12.82
2023-01-23T05:10:19.513Z,12.88
2023-01-23T05:12:47.657Z,12.38
2023-01-23T05:15:14.428Z,13.13
2023-01-23T05:17:44.090Z,13.15
2023-01-23T05:20:11.542Z,12.25
2023-01-23T05:22:39.676Z,12.85
2023-01-23T05:25:07.202Z,13.00
2023-01-23T05:27:34.156Z,12.45
2023-01-23T05:30:00.985Z,12.95
2023-01-23T05:32:32.245Z,13.32
2023-01-23T05:35:08.138Z,13.38
2023-01-23T05:37:36.497Z,12.55
2023-01-23T05:40:07.184Z,13.52
2023-01-23T05:42:52.626Z,13.68
2023-01-23T05:45:51.760Z,14.13
2023-01-23T05:48:26.919Z,13.75
2023-01-23T05:50:53.860Z,13.35
2023-01-23T05:53:21.529Z,13.10
2023-01-23T05:55:48.754Z,13.88
2023-01-23T05:58:16.120Z,13.88
2023-01-23T06:01:09.272Z,13.05
2023-01-23T06:03:54.717Z,12.85
2023-01-23T06:06:33.721Z,13.68
2023-01-23T06:09:00.516Z,12.82
2023-01-23T06:11:27.232Z,12.80
2023-01-23T06:13:54.165Z,12.55
2023-01-23T06:16:21.186Z,13.73
2023-01-23T06:18:48.038Z,14.23
2023-01-23T06:21:18.295Z,13.38
2023-01-23T06:23:45.897Z,13.60
2023-01-23T06:26:13.262Z,13.38
2023-01-23T06:28:41.756Z,220.02
2023-01-23T06:31:10.380Z,252.90
2023-01-23T06:33:50.526Z,104.05
2023-01-23T06:36:18.430Z,129.80
2023-01-23T06:38:45.143Z,78.00
2023-01-23T06:41:13.031Z,31.92
2023-01-23T06:43:45.652Z,20.80
2023-01-23T06:46:17.748Z,16.27
2023-01-23T06:48:44.774Z,15.57
2023-01-23T06:51:11.896Z,13.25
2023-01-23T06:53:41.985Z,13.32
2023-01-23T06:56:09.020Z,12.82
2023-01-23T06:58:38.831Z,13.45
2023-01-23T07:01:09.947Z,12.18
2023-01-23T07:04:02.960Z,13.05
2023-01-23T07:06:30.971Z,12.77
2023-01-23T07:08:57.613Z,12.40
2023-01-23T07:11:25.269Z,13.63
2023-01-23T07:13:52.248Z,13.13
2023-01-23T07:16:19.816Z,12.38
2023-01-23T07:18:46.685Z,13.80
2023-01-23T07:21:13.725Z,13.23
2023-01-23T07:23:40.301Z,13.55
2023-01-23T07:26:10.363Z,12.60
2023-01-23T07:28:37.769Z,14.18
2023-01-23T07:31:05.136Z,13.15
2023-01-23T07:33:31.855Z,13.07
2023-01-23T07:35:58.577Z,12.25
2023-01-23T07:38:28.073Z,13.73
2023-01-23T07:40:58.355Z,13.13
2023-01-23T07:43:25.697Z,13.32
2023-01-23T07:45:52.241Z,12.55
2023-01-23T07:48:19.041Z,12.77
2023-01-23T07:50:45.971Z,12.75
2023-01-23T07:53:12.568Z,13.07
2023-01-23T07:55:39.308Z,12.50
2023-01-23T07:58:06.154Z,12.57
2023-01-23T08:00:32.766Z,12.60
2023-01-23T08:02:59.592Z,11.82
2023-01-23T10:12:08.347Z,9.78
2023-01-23T11:08:07.920Z,10.07
2023-01-23T11:14:29.255Z,10.50
2023-01-23T11:17:23.944Z,10.80
2023-01-23T11:19:53.326Z,10.40
2023-01-23T11:22:33.857Z,11.07
2023-01-23T11:25:02.773Z,11.40
2023-01-23T11:27:31.200Z,10.13
2023-01-23T11:30:13.019Z,10.07
2023-01-23T11:32:45.650Z,10.60
2023-01-23T11:35:14.870Z,10.80
2023-01-23T11:37:42.387Z,13.05
2023-01-23T11:40:19.977Z,11.80
2023-01-23T11:42:47.051Z,11.70
2023-01-23T11:45:25.653Z,11.68
2023-01-23T11:48:11.319Z,11.18
2023-01-23T11:50:49.936Z,11.48
2023-01-23T11:53:33.504Z,12.45
2023-01-23T11:56:13.566Z,11.43
2023-01-23T11:58:49.843Z,11.68
2023-01-23T12:01:49.260Z,12.73
2023-01-23T12:04:46.688Z,11.82
2023-01-23T12:07:18.775Z,11.20
2023-01-23T12:09:57.311Z,11.35
2023-01-23T12:12:24.071Z,10.73
2023-01-23T12:15:09.283Z,10.65
2023-01-23T12:17:55.825Z,11.82
2023-01-23T16:07:01.629Z,9.90
2023-01-23T16:09:30.905Z,9.95
2023-01-23T16:11:58.859Z,9.55
2023-01-23T16:14:28.983Z,10.55
2023-01-23T16:16:58.214Z,8.93
2023-01-23T16:19:31.378Z,10.32
2023-01-23T16:22:04.783Z,9.27
2023-01-23T16:24:35.087Z,9.80
2023-01-23T16:27:02.688Z,8.85
2023-01-23T16:29:33.203Z,9.30
2023-01-23T16:32:02.383Z,9.18
2023-01-23T16:34:28.974Z,8.65
2023-01-23T16:36:56.987Z,8.57
2023-01-23T16:39:24.907Z,9.43
2023-01-23T16:41:51.681Z,9.25
2023-01-23T16:44:19.004Z,11.85
2023-01-23T16:46:46.251Z,11.40
2023-01-23T16:49:13.454Z,10.95
2023-01-23T16:51:46.209Z,9.80
2023-01-23T16:54:18.935Z,9.48
2023-01-23T16:56:46.940Z,9.65
2023-01-23T16:59:19.315Z,9.10
2023-01-23T17:01:48.006Z,9.50
2023-01-23T17:04:17.031Z,11.05
2023-01-23T17:06:43.804Z,10.95
2023-01-23T17:09:14.231Z,8.77
2023-01-23T17:11:58.947Z,9.30
2023-01-23T17:14:28.695Z,10.20
2023-01-23T17:16:58.444Z,8.68
2023-01-23T17:19:31.687Z,8.82
2023-01-23T17:21:59.219Z,8.95
2023-01-23T17:24:25.999Z,8.23
2023-01-23T17:26:52.977Z,8.35
2023-01-23T17:29:20.149Z,8.35
2023-01-23T17:31:48.013Z,8.60
2023-01-23T17:34:19.981Z,7.88
2023-01-23T17:36:46.759Z,8.48
2023-01-23T17:39:13.290Z,7.88
2023-01-23T17:41:40.029Z,8.68
2023-01-23T17:44:06.690Z,9.00
2023-01-23T17:46:34.527Z,8.00
2023-01-23T17:49:01.050Z,8.55
2023-01-23T17:51:27.746Z,8.90
2023-01-23T17:53:55.593Z,8.65
2023-01-23T17:56:22.344Z,8.98
2023-01-23T17:58:49.033Z,9.00
2023-01-23T18:01:22.056Z,9.55
2023-01-23T18:03:49.865Z,9.88
2023-01-23T18:06:16.687Z,10.23
2023-01-23T18:08:43.586Z,10.82
2023-01-23T18:11:17.990Z,10.02
2023-01-23T18:14:20.335Z,11.02
2023-01-23T18:16:48.174Z,11.32
2023-01-23T18:19:22.172Z,11.27
2023-01-23T18:21:49.920Z,11.77
2023-01-23T18:24:22.527Z,10.95
2023-01-23T18:26:55.894Z,16.90
2023-01-23T18:29:30.296Z,13.55
2023-01-23T18:34:25.924Z,14.77
2023-01-23T18:37:06.210Z,14.32
2023-01-23T18:39:41.802Z,13.23
2023-01-23T18:42:11.227Z,19.02
2023-01-23T18:44:39.835Z,12.68
2023-01-23T18:47:11.079Z,10.55
2023-01-23T18:49:37.887Z,10.77
2023-01-23T18:52:09.748Z,11.57
2023-01-23T18:54:44.595Z,11.07
2023-01-23T18:57:17.244Z,11.13
2023-01-23T19:00:33.701Z,10.57
2023-01-23T19:03:12.585Z,10.40
2023-01-23T19:05:39.419Z,11.27
2023-01-23T19:08:05.986Z,10.70
2023-01-23T19:10:48.114Z,10.80
2023-01-23T19:13:25.173Z,10.43
2023-01-23T19:16:11.056Z,11.80
2023-01-23T19:18:47.978Z,11.13
2023-01-23T19:21:23.810Z,10.93
2023-01-23T19:24:01.022Z,11.57
2023-01-23T19:26:32.172Z,11.82
2023-01-23T19:29:03.473Z,11.40
2023-01-23T19:31:36.595Z,10.95
2023-01-23T19:34:04.171Z,10.55
2023-01-23T19:36:31.883Z,11.05
2023-01-23T19:39:03.282Z,11.48
2023-01-23T19:41:32.899Z,10.75
2023-01-23T19:44:02.935Z,10.45
2023-01-23T19:46:33.866Z,11.88
2023-01-23T19:49:02.929Z,11.35
2023-01-23T19:51:30.165Z,12.85
2023-01-23T19:53:56.743Z,11.98
2023-01-23T19:56:23.244Z,12.05
2023-01-23T19:58:50.026Z,12.82
2023-01-23T20:01:20.349Z,12.10
2023-01-23T20:03:47.001Z,12.63
2023-01-23T20:06:13.861Z,12.27
2023-01-23T20:08:40.894Z,12.77
2023-01-23T20:11:09.446Z,13.88
2023-01-23T20:13:36.037Z,13.90
2023-01-23T20:16:29.469Z,12.00
2023-01-23T20:18:56.050Z,12.30
2023-01-23T20:21:23.543Z,12.68
2023-01-23T20:23:50.842Z,11.52
2023-01-23T20:26:18.756Z,13.18
2023-01-23T20:28:55.973Z,12.90
2023-01-23T20:31:22.819Z,12.77
2023-01-23T20:33:49.701Z,11.90
2023-01-23T20:36:16.422Z,13.25
2023-01-23T20:38:43.186Z,12.60
2023-01-23T20:41:10.922Z,12.73
2023-01-23T20:43:40.916Z,13.10
2023-01-23T20:46:07.672Z,13.20
2023-01-23T20:48:35.119Z,13.18
2023-01-23T20:51:01.939Z,12.98
2023-01-23T20:53:31.578Z,13.35
2023-01-23T20:55:59.148Z,13.57
2023-01-23T20:58:44.696Z,13.27
2023-01-23T21:01:12.157Z,13.77
2023-01-23T21:03:39.867Z,12.98
2023-01-23T21:06:06.873Z,12.85
2023-01-23T21:08:34.508Z,13.57
2023-01-23T21:11:20.323Z,13.68
2023-01-23T21:13:50.987Z,14.02
2023-01-23T21:16:18.130Z,14.10
2023-01-23T21:18:51.024Z,13.80
2023-01-23T21:21:21.743Z,12.50
2023-01-23T21:23:51.538Z,14.05
2023-01-23T21:26:45.722Z,14.13
2023-01-23T21:29:19.908Z,13.45
2023-01-23T21:31:52.814Z,13.15
2023-01-23T21:34:21.200Z,13.32
2023-01-23T21:36:56.856Z,13.02
2023-01-23T21:39:43.660Z,13.05
2023-01-23T21:42:30.191Z,13.45
2023-01-23T21:45:28.887Z,13.00
2023-01-23T21:47:59.454Z,13.50
2023-01-23T21:50:27.306Z,12.88
2023-01-23T21:52:54.397Z,12.73
2023-01-23T21:55:39.073Z,12.50
2023-01-23T21:58:07.338Z,13.32
2023-01-23T22:00:53.648Z,13.77
2023-01-23T22:03:22.984Z,13.40
2023-01-23T22:05:57.114Z,13.38
2023-01-23T22:08:23.766Z,13.53
2023-01-23T22:10:50.470Z,15.07
2023-01-23T22:13:17.113Z,14.70
2023-01-23T22:15:46.904Z,14.70
2023-01-23T22:18:14.075Z,13.88
2023-01-23T22:20:40.627Z,15.15
2023-01-23T22:23:10.123Z,14.80
2023-01-23T22:25:36.758Z,14.30
2023-01-23T22:28:03.774Z,14.45
2023-01-23T22:30:33.183Z,15.45
2023-01-23T22:33:00.329Z,15.52
2023-01-23T22:35:29.514Z,14.13
2023-01-23T22:37:56.323Z,14.57
2023-01-23T22:40:23.353Z,14.88
2023-01-23T22:42:50.220Z,15.10
2023-01-23T22:45:17.147Z,14.73
2023-01-23T22:47:43.938Z,15.55
2023-01-23T22:50:11.082Z,15.18
2023-01-23T22:52:37.771Z,15.05
2023-01-23T22:55:04.303Z,15.82
2023-01-23T22:57:31.180Z,15.15
2023-01-23T22:59:57.799Z,16.30
2023-01-23T23:02:24.685Z,14.75
2023-01-23T23:04:51.747Z,14.10
2023-01-23T23:07:18.835Z,14.88
2023-01-23T23:09:45.491Z,14.90
2023-01-23T23:12:13.567Z,13.95
2023-01-23T23:14:40.432Z,14.25
2023-01-23T23:17:07.185Z,14.85
2023-01-23T23:19:34.207Z,14.77
2023-01-23T23:22:00.812Z,14.82
2023-01-23T23:24:27.479Z,14.73
2023-01-23T23:26:54.341Z,15.40
2023-01-23T23:29:21.260Z,14.18
2023-01-23T23:31:51.575Z,13.70
2023-01-23T23:34:19.113Z,14.23
2023-01-23T23:36:45.569Z,14.05
2023-01-23T23:39:12.512Z,13.88
2023-01-23T23:41:39.252Z,14.10
2023-01-23T23:44:06.053Z,14.05
2023-01-23T23:46:32.627Z,14.25
2023-01-23T23:48:59.330Z,13.93
2023-01-23T23:51:26.822Z,15.00
2023-01-23T23:53:53.412Z,15.63
2023-01-23T23:56:21.396Z,15.15
2023-01-23T23:58:48.426Z,15.18
